Time;durP1;ratioP1;P1;durP2;ratioP2;P2;SDS_P1;SDS_P2;PMS_P1;PMS_P2;Temp;Humidity;BMP_temperature;BMP_pressure;BME280_temperature;BME280_humidity;BME280_pressure;Samples;Min_cycle;Max_cycle;Signal;HPM_P1;HPM_P2
2021/04/04 00:00:41;;;;;;;45.87;21.33;;;;;;;1.97;68.45;99128.06;117039;1209;22904;-62
2021/04/04 00:03:10;;;;;;;41.75;20.85;;;;;;;2.00;68.32;99129.50;117081;1209;22929;-62
2021/04/04 00:05:37;;;;;;;33.10;18.93;;;;;;;2.03;68.14;99135.25;117231;1209;22853;-60
2021/04/04 00:08:05;;;;;;;34.20;18.40;;;;;;;2.04;68.77;99131.53;117145;1209;22877;-61
2021/04/04 00:10:33;;;;;;;39.20;18.90;;;;;;;2.06;68.15;99137.52;117197;1214;22843;-60
2021/04/04 00:13:00;;;;;;;50.30;24.90;;;;;;;2.06;68.01;99140.20;117087;1211;23189;-60
2021/04/04 00:15:28;;;;;;;55.40;22.90;;;;;;;2.08;68.81;99138.14;117176;1209;23368;-60
2021/04/04 00:17:56;;;;;;;48.20;22.35;;;;;;;2.11;67.59;99142.27;117122;1209;23071;-60
2021/04/04 00:20:24;;;;;;;51.75;25.20;;;;;;;2.11;67.68;99140.41;117219;1209;22873;-60
2021/04/04 00:22:51;;;;;;;48.80;24.30;;;;;;;2.11;67.44;99143.09;117070;1214;23010;-60
2021/04/04 00:25:19;;;;;;;52.33;24.83;;;;;;;2.12;67.71;99146.61;117200;1209;22841;-60
2021/04/04 00:27:47;;;;;;;49.20;23.60;;;;;;;2.09;67.77;99142.48;117138;1214;23773;-60
2021/04/04 00:30:16;;;;;;;51.45;25.05;;;;;;;2.09;67.65;99141.65;117040;1212;22967;-60
2021/04/04 00:32:44;;;;;;;53.90;25.45;;;;;;;2.11;67.80;99150.33;117247;1209;23626;-60
2021/04/04 00:35:20;;;;;;;70.00;31.60;;;;;;;2.13;68.52;99141.02;117097;1207;22955;-60
2021/04/04 00:37:49;;;;;;;71.05;32.90;;;;;;;2.18;68.52;99139.53;117169;1214;23089;-60
2021/04/04 00:40:19;;;;;;;75.10;31.75;;;;;;;2.18;68.69;99145.73;117130;1214;22951;-60
2021/04/04 00:42:46;;;;;;;85.30;37.45;;;;;;;2.17;68.87;99145.95;117214;1209;22925;-60
2021/04/04 00:45:19;;;;;;;77.87;32.57;;;;;;;2.19;69.39;99154.63;117099;1209;22916;-60
2021/04/04 00:47:47;;;;;;;82.10;32.00;;;;;;;2.27;69.13;99162.47;117211;1215;22931;-60
2021/04/04 00:50:15;;;;;;;86.40;35.07;;;;;;;2.37;69.20;99165.52;117118;1212;22874;-60
2021/04/04 00:52:46;;;;;;;114.50;44.60;;;;;;;2.44;68.98;99163.63;117210;1209;22794;-59
2021/04/04 00:55:14;;;;;;;107.10;43.90;;;;;;;2.48;68.97;99165.66;117079;1212;23496;-60
2021/04/04 00:57:42;;;;;;;111.07;43.47;;;;;;;2.57;68.76;99166.25;117148;1212;23824;-60
2021/04/04 01:00:15;;;;;;;99.93;38.47;;;;;;;2.65;69.43;99167.85;117134;1209;22985;-60
2021/04/04 01:02:43;;;;;;;78.30;32.80;;;;;;;2.71;68.75;99162.45;117174;1212;22871;-60
2021/04/04 01:05:13;;;;;;;79.30;33.20;;;;;;;2.80;68.37;99163.00;117099;1209;22845;-60
2021/04/04 01:07:43;;;;;;;82.25;31.15;;;;;;;2.88;68.98;99160.07;117177;1214;22991;-59
2021/04/04 01:10:11;;;;;;;60.05;23.05;;;;;;;2.98;67.89;99156.89;117079;1212;22849;-60
2021/04/04 01:12:58;;;;;;;42.30;19.50;;;;;;;3.07;67.89;99155.56;117251;1209;22876;-60
2021/04/04 01:15:30;;;;;;;49.40;20.90;;;;;;;3.16;67.87;99162.35;117088;1207;23485;-61
2021/04/04 01:18:21;;;;;;;39.20;19.43;;;;;;;3.25;67.55;99162.89;117181;1214;23153;-60
2021/04/04 01:20:56;;;;;;;44.55;19.90;;;;;;;3.32;67.21;99163.67;116789;1212;22887;-60
2021/04/04 01:23:26;;;;;;;37.13;20.03;;;;;;;3.37;67.20;99155.74;116857;1212;22934;-60
2021/04/04 01:26:20;;;;;;;42.80;19.30;;;;;;;3.40;67.49;99166.08;116824;1212;22868;-60
2021/04/04 01:28:47;;;;;;;42.27;18.00;;;;;;;3.40;66.92;99160.70;116850;1212;22927;-60
2021/04/04 01:31:15;;;;;;;40.80;19.30;;;;;;;3.39;67.51;99161.73;116693;1212;22977;-60
2021/04/04 01:33:43;;;;;;;36.55;20.20;;;;;;;3.35;67.25;99161.34;116856;1213;22952;-60
2021/04/04 01:36:11;;;;;;;43.75;21.10;;;;;;;3.34;67.24;99158.88;116744;1212;22999;-60
2021/04/04 01:38:41;;;;;;;39.50;18.00;;;;;;;3.35;66.66;99158.66;116896;1212;22879;-60
2021/04/04 01:41:25;;;;;;;34.63;16.90;;;;;;;3.37;66.71;99159.27;116703;1212;23031;-60
2021/04/04 01:44:00;;;;;;;32.85;15.30;;;;;;;3.40;66.85;99161.52;116863;1216;22894;-59
2021/04/04 01:46:27;;;;;;;38.95;18.50;;;;;;;3.43;66.42;99162.95;116774;1212;22905;-60
2021/04/04 01:48:55;;;;;;;32.63;16.73;;;;;;;3.41;67.12;99165.86;116872;1212;22964;-60
2021/04/04 01:51:22;;;;;;;42.10;19.80;;;;;;;3.39;67.15;99178.72;116795;1212;22943;-60
2021/04/04 01:53:51;;;;;;;38.17;17.73;;;;;;;3.39;67.23;99177.89;116834;1213;22945;-60
2021/04/04 01:56:18;;;;;;;33.60;16.85;;;;;;;3.35;66.72;99163.21;116774;1216;23185;-60
2021/04/04 01:58:47;;;;;;;37.35;16.60;;;;;;;3.37;67.16;99167.34;117014;1209;23417;-60
2021/04/04 02:01:15;;;;;;;39.47;17.20;;;;;;;3.41;66.66;99168.55;117223;1209;24079;-60
2021/04/04 02:03:42;;;;;;;43.90;18.05;;;;;;;3.36;67.48;99162.99;117115;1209;22890;-60
2021/04/04 02:06:16;;;;;;;34.70;16.50;;;;;;;3.32;67.38;99171.75;117168;1212;22878;-60
2021/04/04 02:08:44;;;;;;;35.13;16.10;;;;;;;3.30;67.38;99163.06;117159;1212;24097;-60
2021/04/04 02:11:14;;;;;;;35.75;17.60;;;;;;;3.31;67.00;99167.41;117197;1209;22830;-60
2021/04/04 02:13:42;;;;;;;43.57;19.87;;;;;;;3.32;67.45;99172.55;117080;1209;22963;-60
2021/04/04 02:16:09;;;;;;;36.90;18.20;;;;;;;3.31;67.27;99178.18;115610;1209;23137;-58
2021/04/04 02:18:37;;;;;;;37.30;19.05;;;;;;;3.34;67.56;99166.95;113282;1214;23135;-58
2021/04/04 02:21:06;;;;;;;44.15;22.35;;;;;;;3.38;67.41;99168.16;116912;1210;23402;-59
2021/04/04 02:23:33;;;;;;;34.50;19.55;;;;;;;3.42;67.99;99163.99;117046;1212;23037;-59
2021/04/04 02:26:01;;;;;;;36.27;19.07;;;;;;;3.46;67.27;99167.91;117176;1210;22910;-60
2021/04/04 02:28:30;;;;;;;36.70;17.60;;;;;;;3.45;66.91;99161.69;117092;1209;22847;-58
2021/04/04 02:30:58;;;;;;;29.70;16.20;;;;;;;3.45;66.77;99159.00;117228;1209;22906;-57
2021/04/04 02:33:30;;;;;;;27.10;14.30;;;;;;;3.43;67.10;99160.27;117100;1209;23023;-58
2021/04/04 02:36:06;;;;;;;32.53;15.30;;;;;;;3.43;67.08;99155.70;117163;1209;23769;-57
2021/04/04 02:38:35;;;;;;;34.00;15.50;;;;;;;3.41;66.88;99155.09;117086;1209;24039;-58
2021/04/04 02:41:04;;;;;;;26.85;14.80;;;;;;;3.41;67.40;99146.19;117223;1209;22902;-58
2021/04/04 02:43:32;;;;;;;32.83;15.07;;;;;;;3.41;67.84;99151.57;117000;1209;22877;-58
2021/04/04 02:46:02;;;;;;;30.35;14.70;;;;;;;3.40;67.15;99142.67;117240;1214;23101;-58
2021/04/04 02:48:31;;;;;;;28.23;15.23;;;;;;;3.42;67.86;99142.45;117065;1209;22995;-58
2021/04/04 02:51:04;;;;;;;27.03;14.33;;;;;;;3.43;67.83;99150.31;117215;1210;22998;-58
2021/04/04 02:53:34;;;;;;;27.10;13.83;;;;;;;3.43;68.32;99141.41;117146;1209;22951;-58
2021/04/04 02:56:01;;;;;;;21.87;11.30;;;;;;;3.45;67.89;99142.02;117183;1209;22912;-58
2021/04/04 02:58:29;;;;;;;21.77;11.80;;;;;;;3.45;68.06;99148.23;117193;1209;22949;-58
2021/04/04 03:01:00;;;;;;;20.40;11.60;;;;;;;3.47;68.16;99150.67;117125;1209;22874;-58
2021/04/04 03:03:28;;;;;;;19.93;10.87;;;;;;;3.48;67.84;99150.45;117183;1209;22925;-59
2021/04/04 03:05:57;;;;;;;25.60;12.15;;;;;;;3.52;68.43;99151.67;117101;1209;22862;-58
2021/04/04 03:08:24;;;;;;;27.00;12.50;;;;;;;3.56;68.10;99160.14;117188;1209;22924;-59
2021/04/04 03:10:53;;;;;;;20.70;11.35;;;;;;;3.60;67.98;99166.73;117072;1209;22991;-58
2021/04/04 03:13:22;;;;;;;23.67;11.33;;;;;;;3.66;67.54;99163.14;117189;1209;22868;-58
2021/04/04 03:15:50;;;;;;;28.70;13.57;;;;;;;3.70;68.04;99160.83;117121;1212;23481;-58
2021/04/04 03:18:18;;;;;;;26.30;13.85;;;;;;;3.72;67.50;99167.65;117204;1209;22867;-58
2021/04/04 03:20:47;;;;;;;23.80;12.57;;;;;;;3.76;67.45;99157.23;117115;1209;22829;-58
2021/04/04 03:23:15;;;;;;;23.80;12.45;;;;;;;3.77;67.34;99161.58;117193;1209;22969;-59
2021/04/04 03:25:44;;;;;;;24.85;12.60;;;;;;;3.77;67.54;99167.78;117040;1214;23107;-59
2021/04/04 03:28:13;;;;;;;26.00;12.60;;;;;;;3.79;67.09;99178.34;117142;1209;22942;-59
2021/04/04 03:30:45;;;;;;;22.80;11.80;;;;;;;3.78;67.63;99174.00;116834;1210;22997;-58
2021/04/04 03:33:17;;;;;;;20.80;10.70;;;;;;;3.75;67.72;99177.16;117205;1209;22869;-59
2021/04/04 03:35:46;;;;;;;17.10;9.80;;;;;;;3.74;67.54;99187.12;117087;1212;22971;-59
2021/04/04 03:38:14;;;;;;;12.25;7.70;;;;;;;3.74;68.62;99184.42;117167;1209;23426;-63
2021/04/04 03:40:42;;;;;;;16.17;7.43;;;;;;;3.76;68.27;99176.09;117107;1209;22915;-58
2021/04/04 03:43:22;;;;;;;12.30;6.43;;;;;;;3.77;68.91;99177.74;117148;1209;22830;-58
2021/04/04 03:45:53;;;;;;;10.50;5.53;;;;;;;3.82;69.05;99175.22;116107;1209;23240;-59
2021/04/04 03:48:22;;;;;;;13.20;6.30;;;;;;;3.86;69.06;99182.64;113452;1212;23141;-59
2021/04/04 03:50:50;;;;;;;10.20;5.43;;;;;;;3.93;69.49;99185.25;113252;1212;23143;-59
2021/04/04 03:53:20;;;;;;;12.95;7.20;;;;;;;3.98;69.24;99189.98;117218;1209;22891;-61
2021/04/04 03:55:52;;;;;;;11.75;6.15;;;;;;;4.03;69.11;99195.53;117180;1209;23055;-60
2021/04/04 03:58:20;;;;;;;9.83;6.00;;;;;;;4.08;69.69;99201.06;117140;1209;22925;-60
2021/04/04 04:00:48;;;;;;;12.40;7.07;;;;;;;4.13;69.49;99203.92;117193;1209;23738;-58
2021/04/04 04:03:16;;;;;;;13.50;7.27;;;;;;;4.16;69.81;99198.91;117053;1209;22888;-58
2021/04/04 04:05:45;;;;;;;11.50;6.67;;;;;;;4.19;69.81;99200.30;117153;1212;23841;-58
2021/04/04 04:08:14;;;;;;;13.60;7.60;;;;;;;4.21;69.63;99200.91;117078;1207;22906;-58
2021/04/04 04:10:41;;;;;;;12.73;7.47;;;;;;;4.21;70.00;99207.13;117199;1209;22945;-58
2021/04/04 04:13:09;;;;;;;13.70;7.70;;;;;;;4.22;69.93;99205.26;117096;1209;22817;-58
2021/04/04 04:15:37;;;;;;;15.17;8.60;;;;;;;4.21;69.74;99212.52;117156;1209;22910;-58
2021/04/04 04:18:05;;;;;;;14.70;9.25;;;;;;;4.21;69.96;99211.70;117084;1209;22951;-58
2021/04/04 04:22:52;;;;;;;16.73;9.13;;;;;;;4.22;69.79;99213.34;113443;1203;23108;-58
2021/04/04 04:25:19;;;;;;;20.47;10.80;;;;;;;4.23;69.73;99220.39;113467;1209;23119;-58
2021/04/04 04:27:47;;;;;;;23.60;12.75;;;;;;;4.22;69.95;99221.44;117171;1208;22987;-59
2021/04/04 04:30:16;;;;;;;20.50;11.45;;;;;;;4.22;70.25;99216.05;117202;1208;22797;-60
2021/04/04 04:32:44;;;;;;;16.50;10.05;;;;;;;4.25;70.46;99224.52;117153;1209;23062;-59
2021/04/04 04:35:11;;;;;;;13.53;7.13;;;;;;;4.29;70.33;99230.30;117288;1208;22923;-60
2021/04/04 04:37:41;;;;;;;12.10;6.90;;;;;;;4.34;70.16;99226.90;117107;1209;22817;-59
2021/04/04 04:40:09;;;;;;;11.45;5.85;;;;;;;4.36;70.20;99227.50;117217;1209;22821;-59
2021/04/04 04:42:41;;;;;;;14.05;6.60;;;;;;;4.38;70.34;99226.23;117241;1208;22849;-59
2021/04/04 04:45:17;;;;;;;10.73;6.13;;;;;;;4.39;70.08;99233.28;117142;1208;22873;-60
2021/04/04 04:47:44;;;;;;;11.90;6.05;;;;;;;4.38;69.98;99234.33;117256;1209;22886;-60
2021/04/04 04:50:12;;;;;;;11.75;5.80;;;;;;;4.39;70.08;99235.16;117084;1209;23441;-60
2021/04/04 04:52:41;;;;;;;12.70;6.25;;;;;;;4.40;70.10;99237.63;117352;1209;22900;-60
2021/04/04 04:55:10;;;;;;;7.25;4.60;;;;;;;4.26;70.06;99203.77;117248;1209;22934;-58
2021/04/04 04:57:39;;;;;;;7.55;4.35;;;;;;;4.47;70.54;99232.97;117220;1208;22866;-59
2021/04/04 05:00:09;;;;;;;8.40;4.50;;;;;;;4.49;71.06;99238.14;117131;1209;22877;-59
2021/04/04 05:02:38;;;;;;;10.05;4.20;;;;;;;4.53;70.99;99231.25;117244;1208;22975;-59
2021/04/04 05:05:06;;;;;;;7.40;3.63;;;;;;;4.55;71.55;99234.55;117165;1209;22776;-59
2021/04/04 05:07:36;;;;;;;5.45;3.55;;;;;;;4.58;71.72;99234.10;117221;1208;22840;-59
2021/04/04 05:10:08;;;;;;;7.90;3.75;;;;;;;4.61;72.21;99239.88;117144;1209;22816;-59
2021/04/04 05:12:47;;;;;;;7.40;3.50;;;;;;;4.66;72.57;99241.05;117217;1208;22819;-59
2021/04/04 05:15:16;;;;;;;5.45;3.55;;;;;;;4.66;72.82;99241.88;117076;1209;23622;-59
2021/04/04 05:17:44;;;;;;;11.45;5.45;;;;;;;4.68;72.95;99244.35;117205;1208;22784;-59
2021/04/04 05:20:12;;;;;;;11.75;5.70;;;;;;;4.64;72.83;99249.38;117132;1208;22984;-59
2021/04/04 05:22:39;;;;;;;10.90;5.57;;;;;;;4.63;72.95;99243.15;117188;1209;22874;-59
2021/04/04 05:25:10;;;;;;;10.05;6.20;;;;;;;4.62;73.31;99246.06;117119;1209;22852;-57
2021/04/04 05:27:37;;;;;;;9.90;5.30;;;;;;;4.56;72.63;99242.42;117209;1209;22895;-62
2021/04/04 05:30:10;;;;;;;10.70;6.00;;;;;;;4.53;72.93;99244.73;117178;1209;22897;-62
2021/04/04 05:32:49;;;;;;;13.20;6.00;;;;;;;4.48;72.93;99245.41;117227;1209;22794;-62
2021/04/04 05:35:24;;;;;;;12.00;6.80;;;;;;;4.41;73.04;99251.94;117153;1208;23659;-62
2021/04/04 05:37:51;;;;;;;12.07;6.50;;;;;;;4.37;72.94;99256.13;117368;1208;22878;-62
2021/04/04 05:40:26;;;;;;;11.87;5.87;;;;;;;4.34;73.05;99259.27;117231;1208;23183;-62
2021/04/04 05:42:55;;;;;;;12.00;5.70;;;;;;;4.26;73.15;99260.39;117412;1209;23734;-61
2021/04/04 05:45:30;;;;;;;9.10;5.85;;;;;;;4.25;73.36;99273.05;117255;1209;23580;-62
2021/04/04 05:48:09;;;;;;;10.10;5.35;;;;;;;4.21;73.76;99266.45;117342;1209;23589;-62
2021/04/04 05:50:46;;;;;;;12.50;5.90;;;;;;;4.20;72.98;99269.37;117168;1209;23446;-62
2021/04/04 05:53:16;;;;;;;;;;;;;;;4.19;73.03;99267.72;117279;1216;22917;-62
2021/04/04 05:56:03;;;;;;;8.40;5.00;;;;;;;4.23;73.53;99268.92;117346;1208;22277;-62
2021/04/04 05:58:37;;;;;;;8.90;5.00;;;;;;;4.26;73.11;99274.70;117309;1208;22826;-62
2021/04/04 06:01:25;;;;;;;9.93;5.50;;;;;;;4.25;72.97;99272.23;117152;1212;27321;-62
2021/04/04 06:04:28;;;;;;;8.03;4.93;;;;;;;4.32;73.01;99280.27;116947;1212;22905;-62
2021/04/04 06:07:26;;;;;;;7.85;4.65;;;;;;;4.33;72.42;99287.31;116805;1212;22959;-62
2021/04/04 06:10:05;;;;;;;7.87;3.80;;;;;;;4.34;72.57;99287.06;116921;1212;23898;-62
2021/04/04 06:13:03;;;;;;;8.15;4.80;;;;;;;4.36;72.66;99278.75;116828;1212;23739;-62
2021/04/04 06:16:02;;;;;;;9.60;4.30;;;;;;;4.40;72.79;99275.39;116930;1212;22895;-62
2021/04/04 06:18:41;;;;;;;8.07;3.80;;;;;;;4.44;72.54;99287.39;116831;1212;22810;-62
2021/04/04 06:21:23;;;;;;;7.20;4.40;;;;;;;4.48;72.08;99291.27;116989;1212;22881;-62
2021/04/04 06:23:51;;;;;;;6.05;3.90;;;;;;;4.51;72.66;99288.13;116842;1212;22843;-62
2021/04/04 06:26:38;;;;;;;6.25;3.75;;;;;;;4.52;72.97;99288.95;116947;1212;22941;-62
2021/04/04 06:29:22;;;;;;;5.90;3.88;;;;;;;4.53;72.77;99291.42;116860;1212;22823;-62
2021/04/04 06:32:07;;;;;;;6.45;3.70;;;;;;;4.56;73.00;99295.55;116898;1212;22842;-62
2021/04/04 06:34:50;;;;;;;6.20;3.70;;;;;;;4.55;72.97;99305.52;116974;1212;22826;-62
2021/04/04 06:37:52;;;;;;;6.75;4.40;;;;;;;4.58;72.80;99305.08;116872;1212;23608;-63
2021/04/04 06:40:42;;;;;;;6.60;3.30;;;;;;;4.61;72.78;99301.11;116984;1208;22875;-62
2021/04/04 06:43:36;;;;;;;5.65;4.00;;;;;;;4.62;72.48;99300.86;117142;1209;22817;-61
2021/04/04 06:46:10;;;;;;;6.90;3.65;;;;;;;4.66;72.80;99305.81;117296;1209;22792;-62
2021/04/04 06:48:58;;;;;;;6.75;3.85;;;;;;;4.70;72.90;99307.84;117113;1209;22839;-62
2021/04/04 06:52:02;;;;;;;7.15;3.70;;;;;;;4.73;72.69;99302.01;117196;1209;23144;-62
2021/04/04 06:54:53;;;;;;;5.90;3.40;;;;;;;4.80;72.71;99310.00;117131;1209;23742;-62
2021/04/04 06:57:45;;;;;;;6.17;3.43;;;;;;;4.87;72.52;99306.20;117276;1209;22874;-62
2021/04/04 07:00:14;;;;;;;8.40;4.20;;;;;;;4.95;72.52;99313.14;117130;1209;23747;-62
2021/04/04 07:02:44;;;;;;;8.90;4.70;;;;;;;5.04;72.45;99321.78;117255;1209;25269;-64
2021/04/04 07:05:13;;;;;;;6.43;4.40;;;;;;;5.08;72.21;99317.55;117158;1208;22771;-61
2021/04/04 07:07:43;;;;;;;6.15;4.50;;;;;;;5.10;72.39;99313.58;117229;1209;22851;-62
2021/04/04 07:10:25;;;;;;;7.55;4.25;;;;;;;5.14;71.98;99322.88;117187;1208;23530;-62
2021/04/04 07:13:17;;;;;;;11.35;5.45;;;;;;;5.17;71.92;99321.61;117178;1209;22871;-61
2021/04/04 07:16:22;;;;;;;10.25;5.20;;;;;;;5.20;71.60;99331.93;117142;1208;22930;-63
2021/04/04 07:19:24;;;;;;;6.90;4.47;;;;;;;5.25;71.47;99327.50;117169;1209;22975;-62
2021/04/04 07:22:15;;;;;;;7.97;4.43;;;;;;;5.29;71.79;99315.20;117344;1208;22883;-63
2021/04/04 07:25:02;;;;;;;6.45;3.95;;;;;;;5.42;71.86;99327.70;117236;1209;22854;-63
2021/04/04 07:27:52;;;;;;;12.35;4.80;;;;;;;5.51;71.45;99315.50;117383;1208;23851;-63
2021/04/04 07:30:33;;;;;;;7.23;4.00;;;;;;;5.62;70.76;99327.42;117116;1208;22969;-63
2021/04/04 07:36:27;;;;;;;7.70;4.20;;;;;;;5.74;69.65;99325.56;113183;1206;23153;-66
2021/04/04 07:38:55;;;;;;;6.23;4.10;;;;;;;5.78;69.30;99326.73;117258;1211;22865;-64
2021/04/04 07:41:41;;;;;;;5.80;3.85;;;;;;;5.84;69.58;99323.11;117080;1215;22805;-64
2021/04/04 07:44:31;;;;;;;6.40;3.80;;;;;;;5.90;68.72;99324.11;117212;1212;23613;-65
2021/04/04 07:47:16;;;;;;;6.75;3.90;;;;;;;5.91;68.87;99323.05;116847;1212;22924;-64
2021/04/04 07:49:59;;;;;;;7.20;3.90;;;;;;;5.92;68.34;99322.80;117217;1212;22881;-64
2021/04/04 07:52:33;;;;;;;7.40;3.90;;;;;;;5.95;68.22;99330.45;116999;1211;22878;-63
2021/04/04 07:55:22;;;;;;;9.85;3.55;;;;;;;5.94;68.13;99326.09;116975;1211;22819;-64
2021/04/04 07:58:09;;;;;;;;;;;;;;;5.97;68.45;99327.52;117005;1217;22903;-63
2021/04/04 08:00:39;;;;;;;5.00;2.90;;;;;;;6.00;68.27;99329.76;116764;1214;21431;-64
2021/04/04 08:03:20;;;;;;;5.30;3.10;;;;;;;6.04;68.03;99328.24;116812;1213;22938;-63
2021/04/04 08:05:49;;;;;;;5.20;3.40;;;;;;;6.12;68.59;99318.95;116701;1215;22935;-66
2021/04/04 08:08:22;;;;;;;7.00;3.63;;;;;;;6.19;67.44;99323.20;116638;1215;22828;-64
2021/04/04 08:10:55;;;;;;;6.70;3.10;;;;;;;6.22;67.50;99325.41;116677;1215;22852;-63
2021/04/04 08:13:49;;;;;;;4.70;3.20;;;;;;;6.25;66.55;99322.25;116791;1215;22909;-65
2021/04/04 08:16:25;;;;;;;5.60;3.50;;;;;;;6.25;67.10;99324.95;116702;1214;23032;-65
2021/04/04 08:18:53;;;;;;;5.30;3.55;;;;;;;6.27;66.55;99325.55;116603;1215;22945;-64
2021/04/04 08:21:29;;;;;;;5.05;3.20;;;;;;;6.34;67.16;99323.56;116681;1216;23086;-67
2021/04/04 08:24:06;;;;;;;5.00;3.20;;;;;;;6.41;66.44;99326.13;116635;1215;22903;-67
2021/04/04 08:26:53;;;;;;;3.90;2.70;;;;;;;6.49;65.17;99320.38;116708;1215;23912;-67
2021/04/04 08:29:25;;;;;;;5.40;3.35;;;;;;;6.50;65.23;99319.30;116807;1215;22987;-66
2021/04/04 08:32:01;;;;;;;5.65;3.95;;;;;;;6.54;65.00;99319.65;116496;1215;23311;-66
2021/04/04 08:34:33;;;;;;;5.00;3.40;;;;;;;6.54;64.77;99325.06;116835;1215;22895;-66
2021/04/04 08:37:04;;;;;;;5.70;4.30;;;;;;;6.52;64.63;99313.64;113605;1215;23137;-66
2021/04/04 08:39:31;;;;;;;7.37;4.60;;;;;;;6.47;65.49;99310.84;117216;1212;23897;-67
2021/04/04 08:42:01;;;;;;;10.20;4.10;;;;;;;6.43;65.00;99315.90;116852;1213;22833;-67
2021/04/04 08:44:34;;;;;;;6.10;3.50;;;;;;;6.46;65.56;99310.02;116913;1211;23324;-66
2021/04/04 08:47:32;;;;;;;5.20;3.90;;;;;;;6.55;65.09;99310.47;116984;1212;22897;-66
2021/04/04 08:50:07;;;;;;;4.38;3.28;;;;;;;6.67;64.75;99309.39;117235;1211;22944;-67
2021/04/04 08:52:36;;;;;;;5.05;3.70;;;;;;;6.71;64.23;99302.45;117102;1209;23048;-67
2021/04/04 08:55:04;;;;;;;9.90;5.50;;;;;;;6.81;64.38;99314.55;117223;1209;22846;-67
2021/04/04 08:57:43;;;;;;;8.15;4.25;;;;;;;6.88;63.70;99302.54;117246;1209;22895;-66
2021/04/04 09:00:12;;;;;;;11.20;5.70;;;;;;;6.94;63.32;99304.27;117241;1209;22938;-65
2021/04/04 09:03:00;;;;;;;7.45;5.15;;;;;;;6.96;63.70;99304.86;117236;1209;22989;-65
2021/04/04 09:05:30;;;;;;;8.20;4.90;;;;;;;6.94;64.20;99312.39;117286;1209;22858;-66
2021/04/04 09:07:59;;;;;;;7.65;4.50;;;;;;;6.82;64.43;99317.02;117250;1209;22882;-65
2021/04/04 09:10:32;;;;;;;7.40;4.40;;;;;;;6.66;64.26;99331.28;117207;1209;24034;-65
2021/04/04 09:13:00;;;;;;;6.67;3.53;;;;;;;6.47;63.57;99321.67;117205;1209;22856;-65
2021/04/04 09:15:29;;;;;;;7.20;4.43;;;;;;;6.25;63.72;99327.66;117059;1209;22900;-65
2021/04/04 09:17:57;;;;;;;6.60;4.40;;;;;;;6.02;64.41;99333.88;117221;1209;23650;-66
2021/04/04 09:20:36;;;;;;;6.30;4.83;;;;;;;5.86;64.94;99328.30;117151;1209;22907;-66
2021/04/04 09:23:04;;;;;;;7.65;4.05;;;;;;;5.69;65.84;99344.34;117245;1209;22948;-66
2021/04/04 09:25:33;;;;;;;5.67;3.90;;;;;;;5.55;66.39;99337.48;117129;1209;23915;-65
2021/04/04 09:28:06;;;;;;;7.55;3.85;;;;;;;5.43;66.71;99340.16;117225;1209;22976;-66
2021/04/04 09:30:39;;;;;;;6.00;4.00;;;;;;;5.31;66.55;99341.98;117105;1209;22842;-65
2021/04/04 09:33:10;;;;;;;6.10;3.70;;;;;;;5.18;67.02;99336.77;117251;1208;22983;-65
2021/04/04 09:35:38;;;;;;;5.65;4.35;;;;;;;5.13;67.31;99337.44;117102;1209;22850;-65
2021/04/04 09:38:13;;;;;;;5.95;4.20;;;;;;;5.06;67.67;99342.08;117216;1209;23498;-65
2021/04/04 09:40:42;;;;;;;6.47;4.80;;;;;;;5.05;67.93;99332.33;117131;1209;22820;-65
2021/04/04 09:43:14;;;;;;;8.03;4.43;;;;;;;5.05;68.46;99340.42;117198;1209;22917;-65
2021/04/04 09:45:41;;;;;;;8.20;5.25;;;;;;;5.05;68.89;99332.33;117092;1209;23437;-65
2021/04/04 09:48:25;;;;;;;6.90;5.20;;;;;;;5.06;70.43;99335.85;117262;1209;22948;-65
2021/04/04 09:51:05;;;;;;;8.40;6.90;;;;;;;5.09;71.67;99328.13;117171;1209;22927;-65
2021/04/04 09:53:39;;;;;;;7.20;5.85;;;;;;;5.09;72.13;99321.91;117197;1209;23830;-65
2021/04/04 09:56:14;;;;;;;10.00;7.20;;;;;;;5.13;71.47;99329.33;117119;1209;22815;-65
2021/04/04 09:58:47;;;;;;;7.17;5.00;;;;;;;5.23;72.05;99320.67;117236;1209;22926;-65
2021/04/04 10:01:19;;;;;;;10.70;7.80;;;;;;;5.40;70.90;99316.29;117114;1209;23429;-65
2021/04/04 10:04:07;;;;;;;6.20;5.17;;;;;;;5.51;69.45;99323.60;113797;1212;23925;-66
2021/04/04 10:06:35;;;;;;;;;;;;;;;5.56;69.00;99325.63;117159;1216;22878;-65
2021/04/04 10:09:08;;;;;;;8.87;6.13;;;;;;;5.62;68.56;99314.73;117245;1209;21406;-65
2021/04/04 10:11:46;;;;;;;11.13;7.20;;;;;;;5.64;68.60;99322.58;117124;1209;23734;-66
2021/04/04 10:14:14;;;;;;;13.20;9.10;;;;;;;5.64;67.70;99318.00;117227;1209;22855;-65
2021/04/04 10:16:44;;;;;;;79.80;36.85;;;;;;;5.65;66.97;99321.53;117111;1209;22891;-66
2021/04/04 10:19:15;;;;;;;47.70;23.75;;;;;;;5.69;67.22;99317.31;117264;1209;22779;-66
2021/04/04 10:22:02;;;;;;;78.40;34.20;;;;;;;5.73;66.12;99310.41;117043;1209;22867;-67
2021/04/04 10:24:35;;;;;;;30.45;13.60;;;;;;;5.83;65.90;99312.53;117222;1209;23554;-67
2021/04/04 10:27:18;;;;;;;16.10;11.07;;;;;;;5.94;64.14;99309.05;117106;1209;23708;-65
2021/04/04 10:29:48;;;;;;;29.80;16.00;;;;;;;6.06;64.12;99299.05;117205;1209;22800;-65
2021/04/04 10:32:25;;;;;;;16.10;8.90;;;;;;;6.15;63.01;99296.84;117111;1209;24337;-66
2021/04/04 10:34:53;;;;;;;;;;;;;;;6.28;63.34;99302.84;117255;1216;22890;-66
2021/04/04 10:37:25;;;;;;;26.50;17.20;;;;;;;6.32;63.24;99305.91;117149;1208;21484;-66
2021/04/04 10:40:01;;;;;;;7.90;5.35;;;;;;;6.34;62.92;99309.21;117242;1209;22889;-67
2021/04/04 10:42:29;;;;;;;10.90;7.25;;;;;;;6.34;62.54;99301.92;117109;1209;22870;-65
2021/04/04 10:45:16;;;;;;;6.70;5.05;;;;;;;6.38;62.94;99300.36;117224;1209;23607;-65
2021/04/04 10:47:44;;;;;;;7.10;6.15;;;;;;;6.47;63.32;99295.44;117138;1209;22930;-65
2021/04/04 10:50:15;;;;;;;8.60;5.10;;;;;;;6.54;62.89;99303.41;117199;1209;23922;-65
2021/04/04 10:52:44;;;;;;;9.85;7.10;;;;;;;6.61;62.58;99296.00;117122;1209;22940;-65
2021/04/04 10:55:12;;;;;;;9.55;7.15;;;;;;;6.67;59.29;99298.56;117201;1209;23023;-63
2021/04/04 10:57:39;;;;;;;5.00;3.60;;;;;;;6.76;59.17;99292.80;117101;1209;22929;-64
2021/04/04 11:00:08;;;;;;;6.90;4.00;;;;;;;6.83;60.12;99286.17;117224;1209;22901;-66
2021/04/04 11:02:37;;;;;;;5.47;4.40;;;;;;;6.91;60.81;99282.28;117152;1209;22900;-64
2021/04/04 11:05:11;;;;;;;6.70;4.70;;;;;;;7.01;60.28;99279.77;117221;1209;22834;-67
2021/04/04 11:07:40;;;;;;;4.80;3.40;;;;;;;7.15;59.85;99278.42;113224;1209;23134;-67
2021/04/04 11:10:08;;;;;;;10.60;5.00;;;;;;;7.25;58.91;99275.08;113015;1214;23147;-67
2021/04/04 11:12:38;;;;;;;7.10;5.00;;;;;;;7.32;58.81;99276.59;117225;1209;22803;-67
2021/04/04 11:15:10;;;;;;;7.30;4.30;;;;;;;7.39;59.89;99274.53;117119;1209;22817;-68
2021/04/04 11:17:37;;;;;;;8.30;6.10;;;;;;;7.49;59.50;99275.80;117201;1209;22982;-67
2021/04/04 11:20:06;;;;;;;5.80;4.30;;;;;;;7.57;57.51;99262.66;117147;1209;22829;-65
2021/04/04 11:22:34;;;;;;;6.20;4.60;;;;;;;7.65;58.11;99264.13;117194;1212;23777;-66
2021/04/04 11:25:08;;;;;;;5.63;4.57;;;;;;;7.75;59.53;99267.03;117127;1209;23995;-65
2021/04/04 11:27:48;;;;;;;8.05;5.30;;;;;;;7.86;58.58;99260.70;117214;1209;22914;-65
2021/04/04 11:30:29;;;;;;;6.25;4.75;;;;;;;7.98;57.48;99256.02;117091;1209;22854;-65
2021/04/04 11:33:15;;;;;;;5.50;4.30;;;;;;;8.02;56.13;99261.77;117174;1209;22891;-65
2021/04/04 11:35:59;;;;;;;16.20;10.40;;;;;;;7.98;55.69;99268.75;117085;1209;22843;-61
2021/04/04 11:38:32;;;;;;;24.65;14.20;;;;;;;7.85;56.57;99259.06;117207;1209;22975;-60
2021/04/04 11:41:23;;;;;;;45.90;23.50;;;;;;;7.76;55.94;99272.22;117090;1209;23080;-61
2021/04/04 11:43:52;;;;;;;11.85;7.85;;;;;;;7.64;58.34;99278.78;117173;1207;23742;-61
2021/04/04 11:46:42;;;;;;;14.35;8.50;;;;;;;7.57;60.06;99286.23;117054;1209;23040;-61
2021/04/04 11:49:38;;;;;;;13.00;9.20;;;;;;;7.42;61.17;99294.91;117203;1209;22866;-62
2021/04/04 11:52:09;;;;;;;13.25;8.50;;;;;;;7.16;62.05;99304.45;117191;1209;23791;-61
2021/04/04 11:54:51;;;;;;;12.15;7.75;;;;;;;6.84;64.40;99314.08;117052;1209;28338;-61
2021/04/04 11:57:25;;;;;;;9.40;6.60;;;;;;;6.48;65.79;99339.56;117177;1209;22817;-63
2021/04/04 11:59:53;;;;;;;4.80;3.25;;;;;;;6.09;66.28;99338.34;117098;1209;25219;-60
2021/04/04 12:02:22;;;;;;;4.40;3.30;;;;;;;5.66;67.51;99342.09;117205;1209;22887;-60